Time;durP1;ratioP1;P1;durP2;ratioP2;P2;SDS_P1;SDS_P2;PMS_P1;PMS_P2;Temp;Humidity;BMP_temperature;BMP_pressure;BME280_temperature;BME280_humidity;BME280_pressure;Samples;Min_cycle;Max_cycle;Signal;HPM_P1;HPM_P2
2021/12/21 00:01:47;;;;;;;10.20;3.55;;;5.50;59.00;;;3.76;65.52;102262.81;8371271;28;20454;-88
2021/12/21 00:06:09;;;;;;;3.67;2.47;;;5.60;59.00;;;3.80;65.43;102266.25;8347620;28;20406;-88
2021/12/21 00:10:33;;;;;;;4.15;2.78;;;5.60;59.10;;;3.82;65.47;102264.53;8371255;28;20036;-88
2021/12/21 00:15:01;;;;;;;4.55;2.63;;;5.60;59.10;;;3.85;65.29;102250.75;8374018;28;20115;-88
2021/12/21 00:19:44;;;;;;;3.88;2.63;;;5.50;59.00;;;3.78;65.34;102237.00;8345072;28;20120;-88
2021/12/21 00:24:18;;;;;;;3.88;3.05;;;5.60;59.10;;;3.88;65.32;102242.97;8356770;28;20127;-88
2021/12/21 00:28:56;;;;;;;3.85;2.35;;;5.60;59.10;;;3.78;65.42;102234.41;8380217;28;20111;-88
2021/12/21 00:33:18;;;;;;;4.85;2.38;;;5.60;59.10;;;3.83;65.23;102249.88;8344133;28;20045;-88
2021/12/21 00:37:41;;;;;;;2.85;2.42;;;5.60;59.10;;;3.84;65.21;102257.63;8369199;28;20477;-88
2021/12/21 00:42:03;;;;;;;3.38;2.20;;;5.60;59.10;;;3.88;65.34;102249.00;8356413;28;20123;-89
2021/12/21 00:46:26;;;;;;;5.80;2.17;;;5.60;59.10;;;3.84;65.57;102238.69;8364699;28;20119;-88
2021/12/21 00:50:47;;;;;;;3.13;2.38;;;5.50;59.10;;;3.87;65.43;102247.28;8357263;28;20032;-88
2021/12/21 00:55:09;;;;;;;4.57;2.08;;;5.60;59.20;;;3.90;65.22;102246.44;8356471;28;20036;-88
2021/12/21 00:59:32;;;;;;;6.18;2.40;;;5.70;59.20;;;3.91;65.51;102235.22;8358732;28;20116;-89
2021/12/21 01:03:55;;;;;;;3.58;2.45;;;5.70;59.10;;;3.95;65.47;102252.44;8365622;28;20063;-89
2021/12/21 01:08:21;;;;;;;3.60;2.53;;;5.70;59.10;;;3.86;65.67;102248.16;8365436;28;20123;-89
2021/12/21 01:12:55;;;;;;;4.20;2.50;;;5.70;59.10;;;3.91;65.29;102246.41;8356198;28;20175;-89
2021/12/21 01:17:24;;;;;;;2.67;2.17;;;5.70;59.00;;;3.86;65.68;102240.41;8343883;28;20043;-89
2021/12/21 01:21:59;;;;;;;4.20;2.70;;;5.70;59.00;;;3.87;65.27;102239.53;8366221;28;20553;-89
2021/12/21 01:26:32;;;;;;;3.20;2.45;;;5.70;59.40;;;3.90;65.68;102236.09;8345536;28;20561;-88
2021/12/21 01:31:05;;;;;;;4.13;2.75;;;5.70;59.10;;;3.77;65.26;102223.19;8367000;28;20041;-89
2021/12/21 01:35:32;;;;;;;2.80;2.22;;;5.70;59.10;;;3.91;65.28;102242.97;8327937;28;20115;-89
2021/12/21 01:40:14;;;;;;;3.63;2.58;;;5.70;59.10;;;3.84;65.54;102221.47;8345703;28;20119;-89
2021/12/21 01:49:35;;;;;;;4.07;2.78;;;5.70;59.00;;;3.82;65.33;102220.59;8362240;28;20552;-89
2021/12/21 01:49:37;;;;;;;2.60;2.33;;;5.70;58.90;;;3.74;65.45;102224.94;8355110;28;20120;-88
2021/12/21 01:53:59;;;;;;;3.55;2.10;;;5.60;58.80;;;3.69;65.53;102250.75;8362061;28;20041;-88
2021/12/21 01:58:21;;;;;;;2.58;2.05;;;5.50;58.80;;;3.66;65.36;102226.69;8366160;28;20136;-90
2021/12/21 02:02:43;;;;;;;2.90;2.13;;;5.50;58.90;;;3.70;65.56;102241.28;8368742;28;20115;-88
2021/12/21 02:07:06;;;;;;;4.30;2.30;;;5.50;59.00;;;3.63;65.30;102240.44;8340815;28;20472;-89
2021/12/21 02:11:28;;;;;;;2.30;2.10;;;5.40;59.00;;;3.64;65.24;102225.81;8375519;28;20047;-89
2021/12/21 02:15:49;;;;;;;3.90;2.50;;;5.40;59.20;;;3.65;65.32;102231.00;8357428;28;20577;-88
2021/12/21 02:20:39;;;;;;;3.22;2.00;;;5.60;59.40;;;3.67;65.46;102225.81;8341886;28;20134;-88
2021/12/21 02:25:30;;;;;;;2.38;2.17;;;5.40;59.30;;;3.76;65.62;102223.22;8342416;28;20043;-88
2021/12/21 02:29:45;;;;;;;3.13;1.83;;;5.50;59.30;;;3.82;65.62;102232.66;8366890;28;20123;-89
2021/12/21 02:34:08;;;;;;;1.80;1.70;;;5.40;59.30;;;3.77;65.28;102214.59;8342106;28;20464;-88
2021/12/21 02:38:30;;;;;;;3.38;1.70;;;5.60;59.40;;;3.77;65.47;102210.28;8356595;28;20115;-88
2021/12/21 02:42:51;;;;;;;3.53;2.30;;;5.60;59.40;;;3.85;65.47;102209.41;8379082;28;20120;-88
2021/12/21 02:47:13;;;;;;;2.22;2.03;;;5.60;59.70;;;3.86;65.60;102206.81;8364931;28;20558;-88
2021/12/21 02:51:42;;;;;;;2.67;1.80;;;5.60;59.30;;;3.84;65.46;102197.34;8380289;28;20037;-89
2021/12/21 02:56:04;;;;;;;1.95;1.83;;;5.70;59.40;;;3.82;65.67;102187.00;8363079;28;20112;-89
2021/12/21 03:00:28;;;;;;;2.20;2.00;;;5.50;59.30;;;3.93;65.52;102197.31;8357521;28;20119;-88
2021/12/21 03:04:51;;;;;;;3.03;1.80;;;5.70;59.40;;;3.82;65.77;102179.25;8376616;28;20160;-89
2021/12/21 03:18:14;;;;;;;1.83;1.73;;;5.70;59.30;;;3.92;65.85;102198.19;8364848;28;20128;-89
2021/12/21 03:22:36;;;;;;;2.35;2.00;;;5.70;59.30;;;3.91;65.49;102191.28;8370099;28;20495;-89
2021/12/21 03:26:58;;;;;;;2.42;1.90;;;5.70;59.30;;;3.93;65.53;102195.59;8335828;28;20133;-88
2021/12/21 03:31:21;;;;;;;2.20;2.00;;;5.70;59.30;;;3.93;65.87;102192.13;8369363;28;20032;-89
2021/12/21 03:35:42;;;;;;;2.75;1.98;;;5.70;59.30;;;3.95;65.57;102187.84;8350133;28;20124;-89
2021/12/21 03:40:05;;;;;;;3.83;2.10;;;5.80;59.30;;;4.02;65.98;102199.84;8339183;28;20120;-89
2021/12/21 03:44:27;;;;;;;3.50;2.05;;;5.80;59.30;;;3.96;65.82;102177.47;8367398;28;20119;-89
2021/12/21 03:48:49;;;;;;;4.68;2.15;;;5.80;59.60;;;3.95;65.68;102178.34;8344229;28;20042;-89
2021/12/21 03:53:11;;;;;;;3.40;2.30;;;5.80;59.30;;;3.99;65.66;102195.53;8353574;28;20458;-89
2021/12/21 03:57:32;;;;;;;3.30;2.28;;;5.80;59.30;;;3.97;65.89;102181.78;8372405;28;20123;-89
2021/12/21 04:01:55;;;;;;;2.90;2.20;;;5.80;59.40;;;3.99;65.52;102185.22;8349125;28;20131;-89
2021/12/21 04:06:17;;;;;;;2.42;2.25;;;5.80;59.30;;;4.05;65.83;102194.69;8361573;28;20706;-87
2021/12/21 04:10:38;;;;;;;3.65;2.50;;;5.80;59.30;;;4.03;65.39;102185.22;8354302;28;20978;-88
2021/12/21 04:15:03;;;;;;;2.97;2.47;;;5.80;59.30;;;4.06;65.75;102186.06;8347590;28;20124;-89
2021/12/21 04:19:24;;;;;;;3.28;2.53;;;5.90;59.30;;;4.01;65.75;102182.63;8367964;28;20119;-89
2021/12/21 04:23:47;;;;;;;3.70;2.92;;;5.80;59.30;;;4.08;65.59;102196.38;8380258;28;20123;-89
2021/12/21 04:28:09;;;;;;;3.67;2.67;;;5.80;59.30;;;4.03;66.00;102183.50;8352052;28;20132;-89
2021/12/21 04:32:30;;;;;;;2.97;2.42;;;5.90;59.30;;;4.06;65.79;102172.28;8358602;28;20044;-89
2021/12/21 04:36:52;;;;;;;5.85;3.47;;;5.90;59.30;;;4.07;65.65;102176.56;8370570;28;20112;-89
2021/12/21 04:41:23;;;;;;;5.68;3.53;;;5.90;59.30;;;4.08;65.66;102181.75;8353472;28;20132;-89
2021/12/21 04:45:45;;;;;;;4.28;2.85;;;5.90;59.30;;;4.08;65.67;102189.50;8347744;28;20464;-89
2021/12/21 04:50:08;;;;;;;2.65;2.10;;;5.90;59.30;;;4.11;65.87;102194.66;8357333;28;20130;-89
2021/12/21 04:54:29;;;;;;;2.70;2.40;;;5.90;59.20;;;4.09;65.52;102204.13;8347390;28;20475;-89
2021/12/21 04:58:51;;;;;;;6.28;2.67;;;5.90;59.20;;;4.02;65.86;102201.56;8351247;28;20107;-89
2021/12/21 05:03:14;;;;;;;4.68;2.50;;;5.90;59.20;;;4.04;65.64;102194.69;8346275;28;20120;-90
2021/12/21 05:07:37;;;;;;;3.47;2.53;;;5.90;59.30;;;4.02;65.52;102199.00;8359966;28;20461;-89
2021/12/21 05:12:04;;;;;;;4.30;2.55;;;5.90;59.30;;;4.07;65.36;102210.19;8360376;28;20044;-87
2021/12/21 05:16:22;;;;;;;2.90;2.70;;;5.80;59.30;;;4.05;65.74;102209.31;8331700;28;20082;-84
2021/12/21 05:20:44;;;;;;;5.18;3.25;;;5.80;59.30;;;4.08;65.43;102205.00;8353606;28;20047;-84
2021/12/21 05:25:06;;;;;;;5.40;2.63;;;5.80;59.40;;;4.04;65.60;102205.03;8320894;28;20041;-84
2021/12/21 05:29:31;;;;;;;3.30;2.22;;;5.90;59.40;;;4.04;65.83;102199.84;8326307;28;20124;-84
2021/12/21 05:33:52;;;;;;;2.70;2.38;;;5.80;59.40;;;4.05;65.89;102191.22;8301163;28;20039;-84
2021/12/21 05:38:18;;;;;;;4.13;2.60;;;5.80;59.40;;;4.07;65.58;102202.41;8314743;28;20035;-83
2021/12/21 05:42:42;;;;;;;2.80;2.40;;;5.90;59.40;;;4.01;65.90;102195.56;8296752;28;20128;-82
2021/12/21 05:47:04;;;;;;;6.40;2.58;;;5.80;59.30;;;4.07;65.59;102202.41;8300208;28;20136;-83
2021/12/21 05:51:26;;;;;;;3.42;2.40;;;5.80;59.30;;;4.10;65.78;102211.00;8306928;28;20067;-83
2021/12/21 05:55:48;;;;;;;2.42;2.22;;;6.00;59.30;;;4.05;65.66;102207.63;8327452;28;20036;-83
2021/12/21 06:00:20;;;;;;;3.53;2.63;;;5.80;59.20;;;4.05;65.97;102210.19;8322391;28;20124;-83
2021/12/21 06:04:42;;;;;;;3.15;2.42;;;5.80;59.20;;;4.08;65.36;102217.03;8310732;28;20124;-83
2021/12/21 06:09:08;;;;;;;2.78;2.58;;;5.90;59.20;;;4.04;65.86;102212.78;8295730;28;20132;-83
2021/12/21 06:13:58;;;;;;;2.65;2.42;;;5.90;59.20;;;4.08;65.31;102217.94;8281132;28;20035;-84
2021/12/21 06:23:19;;;;;;;3.35;2.05;;;5.90;59.20;;;4.10;65.79;102230.84;8303604;28;20402;-83
2021/12/21 06:27:41;;;;;;;2.67;1.88;;;5.90;59.20;;;4.07;65.53;102213.59;8283313;28;20272;-84
2021/12/21 06:32:03;;;;;;;2.72;2.00;;;5.90;59.10;;;4.08;65.56;102219.63;8304053;28;20064;-83
2021/12/21 06:36:25;;;;;;;2.60;2.30;;;5.90;59.10;;;4.12;65.67;102224.78;8276008;28;20038;-84
2021/12/21 06:40:47;;;;;;;2.70;2.33;;;5.90;59.10;;;4.09;65.63;102221.38;8299825;28;20042;-84
2021/12/21 06:45:25;;;;;;;2.15;1.83;;;5.90;59.10;;;4.12;65.88;102227.38;8301980;28;20037;-84
2021/12/21 06:54:28;;;;;;;2.10;1.85;;;5.90;59.10;;;4.08;65.66;102224.81;8306811;28;20482;-84
2021/12/21 06:58:55;;;;;;;2.45;2.13;;;5.90;59.10;;;4.13;65.87;102228.22;8303125;28;20042;-83
2021/12/21 07:03:16;;;;;;;1.92;1.73;;;5.90;59.10;;;4.10;65.89;102223.94;8289887;28;20394;-82
2021/12/21 07:07:38;;;;;;;3.05;2.03;;;5.90;59.10;;;4.16;65.73;102239.44;8301842;28;20042;-82
2021/12/21 07:12:23;;;;;;;2.38;2.13;;;5.90;59.10;;;4.15;65.91;102229.94;8304301;28;20034;-82
2021/12/21 07:21:25;;;;;;;2.13;1.90;;;6.20;59.10;;;4.17;65.70;102229.94;8306600;28;20137;-85
2021/12/21 07:25:47;;;;;;;3.50;1.67;;;6.00;59.00;;;4.19;65.74;102239.44;8318548;28;20124;-83
2021/12/21 07:30:10;;;;;;;2.75;2.22;;;5.90;59.00;;;4.18;65.31;102237.69;8300407;28;20581;-82
2021/12/21 07:34:31;;;;;;;1.95;1.80;;;6.00;59.00;;;4.20;65.58;102237.69;8307759;28;20041;-82
2021/12/21 07:38:53;;;;;;;2.53;2.33;;;6.00;59.00;;;4.18;65.61;102237.69;8304589;28;20041;-82
2021/12/21 07:43:15;;;;;;;2.47;2.15;;;6.00;59.00;;;4.19;65.80;102238.56;8302720;28;20545;-82
2021/12/21 07:47:38;;;;;;;2.47;2.10;;;6.00;59.00;;;4.22;65.97;102241.13;8301835;28;20030;-83
2021/12/21 07:52:00;;;;;;;2.95;2.55;;;6.00;59.00;;;4.21;65.70;102242.00;8296954;28;20499;-83
2021/12/21 07:56:21;;;;;;;2.70;2.50;;;6.00;59.00;;;4.14;65.62;102232.56;8326842;28;20124;-83
2021/12/21 08:00:43;;;;;;;2.67;2.00;;;6.00;59.00;;;4.20;65.45;102246.31;8321034;28;20315;-82
2021/12/21 08:05:07;;;;;;;2.90;2.08;;;6.00;59.00;;;4.22;65.80;102248.91;8296080;28;20121;-83
2021/12/21 08:09:36;;;;;;;2.50;2.00;;;6.00;59.00;;;4.17;65.49;102232.53;8299431;28;20120;-82
2021/12/21 08:13:58;;;;;;;2.00;1.83;;;6.00;59.00;;;4.19;65.42;102233.41;8299821;28;20041;-82
2021/12/21 08:18:20;;;;;;;3.13;2.75;;;6.00;59.00;;;4.21;65.58;102247.16;8327232;28;20124;-82
2021/12/21 08:22:42;;;;;;;1.95;1.85;;;6.00;59.00;;;4.26;65.54;102258.34;8305722;28;20047;-83
2021/12/21 08:27:04;;;;;;;2.50;2.30;;;6.00;59.00;;;4.24;65.49;102260.09;8285985;28;20152;-81
2021/12/21 08:31:27;;;;;;;2.30;2.10;;;6.00;59.00;;;4.24;65.11;102262.69;8296619;28;20029;-82
2021/12/21 08:35:49;;;;;;;3.90;2.75;;;6.00;59.00;;;4.27;65.91;102269.56;8312102;28;20039;-85
2021/12/21 08:40:14;;;;;;;2.65;2.45;;;6.00;59.00;;;4.28;65.73;102269.53;8284330;28;20238;-82
2021/12/21 08:44:40;;;;;;;;;;;6.10;59.10;;;4.24;65.62;102264.38;8311295;28;20045;-82
2021/12/21 08:49:03;;;;;;;2.80;2.35;;;6.10;59.10;;;4.29;65.94;102270.41;8289367;28;19913;-83
2021/12/21 08:53:25;;;;;;;2.28;2.05;;;6.10;59.00;;;4.33;65.89;102269.53;8278712;28;20044;-83
2021/12/21 08:57:47;;;;;;;4.20;2.63;;;6.10;59.00;;;4.34;65.82;102282.44;8286086;28;20038;-84
2021/12/21 09:02:09;;;;;;;3.80;2.25;;;6.10;59.00;;;4.31;65.49;102266.09;8308299;28;20037;-82
2021/12/21 09:06:31;;;;;;;2.60;2.40;;;6.10;59.00;;;4.33;65.94;102267.81;8282762;28;20037;-82
2021/12/21 09:10:53;;;;;;;2.90;2.53;;;6.10;59.00;;;4.31;65.54;102255.75;8318159;28;20356;-82
2021/12/21 09:15:17;;;;;;;3.92;2.15;;;6.10;59.00;;;4.41;65.45;102275.53;8274056;28;20042;-82
2021/12/21 09:19:38;;;;;;;2.15;2.03;;;6.20;59.00;;;4.44;65.65;102283.28;8284284;28;20035;-82
2021/12/21 09:24:00;;;;;;;4.18;2.85;;;6.20;59.00;;;4.42;65.81;102274.66;8288031;28;20778;-82
2021/12/21 09:28:22;;;;;;;3.05;2.45;;;6.30;59.00;;;4.47;65.56;102274.63;8291163;28;20055;-83
2021/12/21 09:32:47;;;;;;;2.72;2.53;;;6.20;58.90;;;4.42;65.62;102282.41;8285963;28;20046;-83
2021/12/21 09:37:14;;;;;;;3.50;2.58;;;6.20;58.90;;;4.48;65.69;102284.97;8301262;28;20041;-83
2021/12/21 09:41:36;;;;;;;3.05;2.50;;;6.20;58.80;;;4.41;65.38;102271.22;8273446;28;20045;-83
2021/12/21 09:45:58;;;;;;;3.20;2.38;;;6.20;58.70;;;4.46;65.13;102276.38;8274101;28;20045;-83
2021/12/21 09:50:21;;;;;;;2.97;2.45;;;6.30;59.10;;;4.46;65.43;102280.69;8302566;28;20045;-83
2021/12/21 09:54:43;;;;;;;2.38;2.17;;;6.30;58.80;;;4.55;65.61;102290.97;8292384;28;20043;-81
2021/12/21 09:59:05;;;;;;;2.60;2.33;;;6.30;58.80;;;4.46;65.48;102273.78;8295609;28;20030;-82
2021/12/21 10:03:27;;;;;;;3.00;2.25;;;6.30;58.70;;;4.53;65.53;102280.63;8287987;28;20037;-84
2021/12/21 10:08:02;;;;;;;2.53;2.33;;;6.30;58.60;;;4.55;65.71;102284.06;8286116;28;20059;-84
2021/12/21 10:12:37;;;;;;;3.07;2.27;;;6.30;58.50;;;4.49;65.38;102275.50;8308886;28;20051;-84
2021/12/21 10:17:05;;;;;;;2.72;2.33;;;6.30;58.50;;;4.50;65.70;102287.56;8296359;28;20375;-84
2021/12/21 10:21:27;;;;;;;2.45;2.25;;;6.30;58.50;;;4.55;65.26;102284.06;8300852;28;20113;-84
2021/12/21 10:26:00;;;;;;;2.78;2.58;;;6.30;58.60;;;4.52;65.36;102289.28;8308289;28;20116;-83
2021/12/21 10:30:21;;;;;;;2.78;2.30;;;6.40;58.60;;;4.56;65.59;102284.94;8314378;28;20120;-83
2021/12/21 10:35:12;;;;;;;5.93;3.08;;;6.40;58.60;;;4.56;65.55;102290.09;8294580;28;20041;-83
2021/12/21 10:39:36;;;;;;;2.88;2.67;;;6.20;58.10;;;4.55;65.63;102278.91;8281642;28;20120;-83
2021/12/21 10:44:06;;;;;;;3.20;2.88;;;6.40;58.50;;;4.48;65.24;102266.84;8297290;28;20562;-83
2021/12/21 10:48:29;;;;;;;5.60;2.75;;;6.30;58.50;;;4.61;65.38;102283.19;8276528;28;20589;-85
2021/12/21 10:52:57;;;;;;;3.80;2.38;;;6.40;58.60;;;4.59;65.58;102279.75;8298854;28;20052;-83
2021/12/21 10:57:29;;;;;;;3.42;3.08;;;6.40;58.50;;;4.61;65.53;102283.19;8314158;28;20120;-85
2021/12/21 11:01:51;;;;;;;5.18;2.80;;;6.40;58.40;;;4.64;65.48;102285.75;8302974;28;20041;-83
2021/12/21 11:06:27;;;;;;;2.85;2.60;;;6.40;58.40;;;4.59;65.16;102285.78;8306309;28;20141;-83
2021/12/21 11:10:51;;;;;;;2.97;2.78;;;6.40;58.30;;;4.65;65.34;102279.72;8316550;28;20569;-83
2021/12/21 11:15:16;;;;;;;2.55;2.35;;;6.40;58.30;;;4.44;65.23;102255.69;8314510;22;20058;-88
2021/12/21 11:19:38;;;;;;;2.53;2.33;;;6.30;58.20;;;4.53;65.76;102259.94;8271958;28;20037;-90
2021/12/21 11:24:07;;;;;;;3.70;2.92;;;6.40;58.20;;;4.57;65.25;102265.97;8251163;28;20483;-88
2021/12/21 11:28:35;;;;;;;3.05;2.75;;;6.40;58.10;;;4.58;65.18;102262.50;8245826;28;20026;-88
2021/12/21 11:33:00;;;;;;;5.82;2.25;;;6.30;58.00;;;4.63;65.02;102260.75;8269849;28;20703;-88
2021/12/21 11:37:22;;;;;;;2.97;2.47;;;6.40;58.00;;;4.58;65.08;102252.16;8247391;28;20547;-88
2021/12/21 11:41:44;;;;;;;3.72;2.42;;;6.40;58.00;;;4.60;65.26;102250.44;8233978;28;20037;-89
2021/12/21 11:46:13;;;;;;;2.85;2.25;;;6.40;58.00;;;4.54;65.35;102234.94;8238772;28;20125;-89
2021/12/21 11:50:37;;;;;;;2.70;2.28;;;6.30;58.00;;;4.51;65.13;102224.59;8229055;28;20125;-86
2021/12/21 11:55:07;;;;;;;2.95;2.65;;;6.40;58.00;;;4.61;65.10;102239.19;8255083;28;20574;-87
2021/12/21 11:59:30;;;;;;;3.97;3.10;;;6.40;58.00;;;4.60;65.01;102227.16;8236654;28;20121;-91
2021/12/21 12:04:09;;;;;;;2.85;2.60;;;6.40;58.00;;;4.63;65.14;102233.16;8252060;28;20129;-90
2021/12/21 12:08:58;;;;;;;3.10;2.38;;;6.50;57.90;;;4.66;65.16;102235.72;8241624;28;20045;-90
2021/12/21 12:13:40;;;;;;;2.60;2.40;;;6.50;57.90;;;4.75;65.28;102250.34;8253614;28;20407;-87
2021/12/21 12:18:02;;;;;;;3.35;2.78;;;6.50;57.90;;;4.72;65.40;102245.16;8263701;28;20124;-89
2021/12/21 12:22:35;;;;;;;3.58;2.97;;;6.50;57.90;;;4.63;65.27;102232.31;8252053;28;20121;-92
2021/12/21 12:27:07;;;;;;;4.82;3.10;;;6.40;57.80;;;4.70;64.82;102235.69;8258060;28;20126;-91
2021/12/21 12:31:36;;;;;;;5.47;3.30;;;6.50;57.90;;;4.66;65.11;102232.28;8250648;28;20117;-91
2021/12/21 12:36:03;;;;;;;3.47;2.70;;;6.50;57.70;;;4.68;64.87;102235.72;8245394;28;20132;-89
2021/12/21 12:40:40;;;;;;;3.85;3.30;;;6.50;57.80;;;4.61;65.01;102232.28;8240022;28;20467;-92
2021/12/21 12:45:18;;;;;;;2.80;2.60;;;6.40;57.60;;;4.70;64.90;102238.28;8232084;28;20156;-92
2021/12/21 12:49:55;;;;;;;3.80;2.75;;;6.50;57.70;;;4.73;64.73;102244.31;8257783;28;20117;-92
2021/12/21 12:54:18;;;;;;;;;;;6.50;57.70;;;4.73;65.08;102246.06;8243114;28;20615;-93
2021/12/21 12:58:57;;;;;;;3.95;2.28;;;6.50;57.80;;;4.57;64.82;102219.41;8261010;28;20009;-93
2021/12/21 13:03:21;;;;;;;3.17;2.53;;;6.50;57.40;;;4.69;64.59;102241.75;8246327;28;20121;-93
2021/12/21 13:07:44;;;;;;;3.30;2.65;;;6.40;57.50;;;4.60;64.76;102227.16;8240709;28;20562;-90
2021/12/21 13:12:11;;;;;;;4.03;2.83;;;6.40;57.50;;;4.62;64.68;102241.78;8265555;28;20125;-90
2021/12/21 13:16:37;;;;;;;3.05;2.70;;;6.40;57.70;;;4.51;64.88;102225.47;8251213;28;20121;-92
2021/12/21 13:20:59;;;;;;;3.28;2.92;;;6.40;57.70;;;4.64;64.67;102239.19;8254786;28;20105;-89
2021/12/21 13:25:21;;;;;;;3.20;2.78;;;6.40;57.80;;;4.65;64.59;102244.34;8247379;28;20125;-88
2021/12/21 13:29:44;;;;;;;4.00;3.03;;;6.40;57.80;;;4.63;64.72;102245.22;8248562;28;20577;-89
2021/12/21 13:34:07;;;;;;;3.22;2.90;;;6.40;57.70;;;4.64;64.80;102244.34;8241079;28;20042;-89
2021/12/21 13:38:28;;;;;;;3.63;2.63;;;6.40;57.80;;;4.62;64.94;102244.38;8223582;28;20102;-89
2021/12/21 13:42:50;;;;;;;5.95;4.13;;;6.30;57.70;;;4.59;64.70;102235.75;8240433;28;20129;-89
2021/12/21 13:47:50;;;;;;;4.55;3.05;;;6.40;57.70;;;4.61;64.53;102249.56;8250469;28;20125;-90
2021/12/21 13:52:13;;;;;;;2.60;2.30;;;6.40;57.70;;;4.64;64.78;102257.28;8240609;28;20142;-90
2021/12/21 13:56:35;;;;;;;5.13;2.78;;;6.30;57.70;;;4.62;64.79;102259.91;8276225;28;20589;-86
2021/12/21 14:00:57;;;;;;;2.83;2.40;;;6.40;57.70;;;4.55;64.92;102259.94;8234939;28;20117;-85
2021/12/21 14:05:21;;;;;;;3.47;3.05;;;6.40;57.70;;;4.57;64.68;102261.66;8245397;28;20056;-90
2021/12/21 14:09:43;;;;;;;4.00;3.10;;;6.30;57.60;;;4.49;64.98;102247.91;8243262;28;20041;-93
2021/12/21 14:14:18;;;;;;;3.50;2.72;;;6.30;57.70;;;4.47;64.69;102244.47;8234709;28;20046;-92
2021/12/21 14:18:42;;;;;;;3.37;2.73;;;6.30;57.70;;;4.49;64.81;102242.72;8217468;28;20038;-93
2021/12/21 14:23:04;;;;;;;3.65;3.28;;;6.30;57.80;;;4.49;64.79;102254.81;8236930;28;20183;-92
2021/12/21 14:27:29;;;;;;;3.15;2.70;;;6.30;57.70;;;4.40;64.69;102251.41;8232537;28;20048;-92
2021/12/21 14:32:15;;;;;;;8.07;2.77;;;6.30;57.60;;;4.48;64.53;102271.19;8218709;28;20126;-92
2021/12/21 14:36:39;;;;;;;3.70;2.90;;;6.30;57.60;;;4.36;64.51;102244.50;8231565;28;20288;-86
2021/12/21 14:41:01;;;;;;;3.67;2.85;;;6.50;57.60;;;4.37;64.44;102269.50;8229924;28;20047;-88
2021/12/21 14:45:27;;;;;;;4.45;3.38;;;6.20;57.40;;;4.28;64.80;102264.38;8234165;28;20048;-88
2021/12/21 14:49:56;;;;;;;;;;;6.10;57.40;;;4.23;64.49;102250.59;8244745;28;20402;-87
2021/12/21 14:54:28;;;;;;;3.20;2.90;;;6.10;57.60;;;4.26;64.33;102275.59;8248626;28;19925;-87
2021/12/21 14:59:02;;;;;;;5.38;2.88;;;6.00;57.50;;;4.26;64.65;102280.75;8254416;28;20053;-89
2021/12/21 15:03:24;;;;;;;6.45;2.80;;;6.00;57.40;;;4.17;64.68;102276.50;8251207;28;20038;-89
2021/12/21 15:07:47;;;;;;;4.32;2.90;;;5.90;57.50;;;4.09;64.53;102278.25;8248033;28;20041;-89
2021/12/21 15:12:08;;;;;;;6.15;4.32;;;5.90;57.40;;;3.93;64.58;102261.91;8227401;28;20046;-87
2021/12/21 15:16:30;;;;;;;7.13;4.88;;;5.80;57.40;;;3.98;64.65;102286.88;8245016;28;20411;-88
2021/12/21 15:20:53;;;;;;;7.00;4.07;;;6.00;57.60;;;3.98;64.41;102286.88;8248151;28;20409;-87
2021/12/21 15:25:15;;;;;;;4.80;4.07;;;5.70;57.50;;;3.94;64.46;102303.28;8237971;28;20049;-87
2021/12/21 15:29:39;;;;;;;4.90;3.40;;;5.70;57.60;;;3.90;63.98;102301.53;8235538;28;20509;-88
2021/12/21 15:34:01;;;;;;;3.65;3.35;;;5.60;57.60;;;3.88;64.37;102298.09;8234879;28;20057;-86
2021/12/21 15:38:25;;;;;;;4.73;3.13;;;5.60;57.60;;;3.87;64.46;102293.81;8252932;28;20495;-86
2021/12/21 15:43:06;;;;;;;4.32;2.90;;;5.50;57.70;;;3.81;64.48;102287.78;8240271;28;20045;-87
2021/12/21 15:47:58;;;;;;;4.07;3.35;;;5.50;57.70;;;3.39;64.45;102217.25;8243327;28;20046;-87
2021/12/21 15:52:23;;;;;;;5.15;3.80;;;5.60;57.80;;;3.75;64.59;102284.38;8237872;28;20033;-88
2021/12/21 15:56:46;;;;;;;7.95;3.10;;;5.50;57.70;;;3.71;64.29;102292.09;8237610;28;20536;-87
2021/12/21 16:01:09;;;;;;;3.67;2.72;;;5.50;57.70;;;3.67;64.12;102296.44;8232982;28;20038;-86
2021/12/21 16:05:31;;;;;;;4.32;2.83;;;5.40;57.60;;;3.57;64.40;102279.22;8251302;28;20046;-86
2021/12/21 16:09:55;;;;;;;3.70;2.90;;;5.30;57.60;;;3.61;64.66;102290.41;8259460;28;20049;-86
2021/12/21 16:14:16;;;;;;;6.38;3.65;;;5.30;57.70;;;3.59;64.35;102289.53;8256382;28;20048;-87
2021/12/21 16:18:38;;;;;;;5.38;2.95;;;5.30;57.70;;;3.58;64.51;102290.41;8265950;28;20492;-86
2021/12/21 16:23:00;;;;;;;3.33;2.75;;;5.30;57.70;;;3.58;64.49;102288.69;8274873;28;20042;-89
2021/12/21 16:27:22;;;;;;;5.45;3.58;;;5.30;57.80;;;3.52;64.34;102291.28;8268835;28;20050;-87
2021/12/21 16:31:44;;;;;;;3.85;3.35;;;5.30;57.90;;;3.50;64.39;102292.97;8269549;28;20495;-87
2021/12/21 16:36:05;;;;;;;6.63;4.03;;;5.30;57.90;;;3.50;64.38;102299.00;8236991;28;20044;-87
2021/12/21 16:40:27;;;;;;;4.60;3.85;;;5.20;57.90;;;3.50;64.55;102298.16;8270808;28;20042;-87
2021/12/21 16:44:49;;;;;;;5.28;4.30;;;5.20;57.90;;;3.44;64.70;102288.69;8265103;28;20581;-88
2021/12/21 16:49:11;;;;;;;6.07;4.32;;;5.20;58.20;;;3.50;64.70;102299.00;8245884;28;20041;-87
2021/12/21 16:53:33;;;;;;;6.38;4.40;;;5.20;57.80;;;3.41;64.36;102298.16;8244335;28;20038;-89
2021/12/21 16:57:54;;;;;;;6.28;4.50;;;5.20;57.80;;;3.39;64.46;102303.31;8259973;28;20504;-88
2021/12/21 17:02:19;;;;;;;8.38;6.25;;;5.20;58.10;;;3.40;64.52;102324.81;8283306;28;20041;-88
2021/12/21 17:06:44;;;;;;;6.68;5.20;;;5.10;57.70;;;3.29;64.71;102301.59;8283462;28;20125;-87
2021/12/21 17:11:11;;;;;;;5.32;4.82;;;5.10;57.80;;;3.32;64.41;102309.31;8235139;28;20048;-87
2021/12/21 17:15:33;;;;;;;6.00;4.78;;;5.10;57.90;;;3.28;64.59;102305.91;8261054;28;20033;-87
2021/12/21 17:19:54;;;;;;;8.18;5.10;;;5.00;57.80;;;3.29;64.56;102304.16;8286085;28;20040;-86
2021/12/21 17:24:16;;;;;;;5.03;4.40;;;5.00;57.90;;;3.33;64.84;102314.50;8294573;28;20037;-87
2021/12/21 17:28:38;;;;;;;5.95;4.80;;;5.10;58.00;;;3.27;64.74;102304.19;8258349;28;20033;-87
2021/12/21 17:33:01;;;;;;;4.63;4.05;;;5.10;57.90;;;3.27;64.42;102305.91;8272536;28;20046;-87
2021/12/21 17:37:24;;;;;;;6.60;4.53;;;5.10;57.90;;;3.28;64.58;102310.19;8254842;28;20146;-88
2021/12/21 17:41:46;;;;;;;5.03;4.25;;;5.10;57.90;;;3.23;64.75;102304.16;8275404;28;20034;-88
2021/12/21 17:46:09;;;;;;;4.88;3.97;;;5.30;58.00;;;3.25;64.76;102316.22;8272649;28;20039;-87
2021/12/21 17:50:31;;;;;;;4.93;3.53;;;5.00;57.80;;;3.22;64.57;102312.78;8271461;28;20181;-87
2021/12/21 17:59:10;;;;;;;6.05;4.20;;;5.00;57.80;;;3.21;64.26;102321.38;8454632;22;20057;-79
2021/12/21 18:03:32;;;;;;;5.20;4.70;;;4.90;57.80;;;3.17;64.49;102322.25;8295304;28;20033;-75
2021/12/21 18:07:54;;;;;;;4.30;3.78;;;4.90;57.90;;;3.11;64.70;102320.50;8319313;28;20045;-78
2021/12/21 18:12:16;;;;;;;6.43;4.30;;;4.90;57.90;;;3.17;64.59;102338.59;8316178;28;20051;-77
2021/12/21 18:16:38;;;;;;;9.45;4.38;;;4.90;57.90;;;3.19;64.64;102348.94;8318540;28;20043;-77
2021/12/21 18:20:59;;;;;;;6.45;4.28;;;4.80;57.90;;;3.09;64.67;102333.41;8303968;28;20079;-78
2021/12/21 18:25:22;;;;;;;4.68;4.18;;;4.90;58.00;;;3.08;64.68;102334.28;8300660;28;20044;-77
2021/12/21 18:29:43;;;;;;;8.85;6.68;;;4.90;57.90;;;3.07;64.79;102331.69;8317228;28;20033;-79
2021/12/21 18:34:08;;;;;;;12.93;7.68;;;4.90;57.90;;;3.10;64.60;102340.28;8324614;28;20044;-77
2021/12/21 18:38:36;;;;;;;8.10;5.65;;;4.90;57.90;;;3.02;64.77;102326.50;8299533;28;20285;-78
2021/12/21 18:43:03;;;;;;;7.90;5.32;;;4.70;57.80;;;3.04;64.64;102342.00;8304448;28;20048;-76
2021/12/21 18:47:24;;;;;;;7.22;5.45;;;4.80;57.80;;;2.98;64.45;102332.53;8297066;28;20033;-76
2021/12/21 18:51:47;;;;;;;9.95;6.78;;;4.70;57.90;;;2.97;64.64;102335.09;8375256;22;20946;-83
2021/12/21 18:56:13;;;;;;;7.68;5.97;;;4.90;58.10;;;3.03;64.87;102348.03;8388137;28;20032;-87
2021/12/21 19:00:38;;;;;;;;;;;4.80;58.00;;;3.02;64.64;102344.56;8374768;28;20516;-84
2021/12/21 19:05:00;;;;;;;8.45;5.88;;;4.90;58.40;;;3.07;64.56;102355.75;8393327;28;19916;-83
2021/12/21 19:09:21;;;;;;;7.70;5.13;;;4.90;58.00;;;2.99;64.97;102341.13;8380717;28;20028;-87
2021/12/21 19:13:43;;;;;;;9.75;5.30;;;4.90;58.10;;;2.98;64.88;102334.25;8401561;28;20046;-84
2021/12/21 19:18:05;;;;;;;13.23;6.65;;;4.80;58.00;;;3.07;64.51;102352.31;8401363;28;20067;-83